Time;durP1;ratioP1;P1;durP2;ratioP2;P2;SDS_P1;SDS_P2;PMS_P1;PMS_P2;Temp;Humidity;BMP_temperature;BMP_pressure;BME280_temperature;BME280_humidity;BME280_pressure;Samples;Min_cycle;Max_cycle;Signal;HPM_P1;HPM_P2
2022/03/27 00:00:25;;;;;;;18.15;10.80;;;13.30;57.10;;;;;;5114907;28;20050;-70
2022/03/27 00:03:29;;;;;;;22.85;11.88;;;13.20;57.60;;;;;;5113984;28;20050;-71
2022/03/27 00:06:33;;;;;;;17.90;11.02;;;13.10;58.30;;;;;;5113555;28;20061;-70
2022/03/27 00:09:37;;;;;;;14.60;10.18;;;12.80;59.10;;;;;;5114414;28;20041;-70
2022/03/27 00:12:41;;;;;;;21.02;12.73;;;12.80;59.20;;;;;;5114486;28;20066;-70
2022/03/27 00:15:45;;;;;;;17.35;9.98;;;12.70;60.40;;;;;;5114067;28;20047;-69
2022/03/27 00:18:50;;;;;;;24.77;12.07;;;12.50;59.40;;;;;;5113825;28;20055;-70
2022/03/27 00:21:54;;;;;;;21.13;11.07;;;12.40;61.60;;;;;;5114432;28;20359;-70
2022/03/27 00:24:58;;;;;;;24.70;11.75;;;12.20;61.00;;;;;;5114448;28;20062;-70
2022/03/27 00:28:03;;;;;;;30.85;13.13;;;12.20;62.00;;;;;;5113033;28;20051;-70
2022/03/27 00:31:08;;;;;;;15.75;10.45;;;12.00;62.00;;;;;;5114136;28;20043;-70
2022/03/27 00:34:12;;;;;;;16.33;9.48;;;12.00;60.70;;;;;;5114065;28;20051;-70
2022/03/27 00:37:17;;;;;;;17.52;10.27;;;12.00;60.80;;;;;;5111273;28;20046;-69
2022/03/27 00:40:21;;;;;;;15.60;9.63;;;12.00;61.00;;;;;;5112845;28;20047;-70
2022/03/27 00:43:27;;;;;;;16.90;10.05;;;12.10;62.00;;;;;;5113951;28;20054;-70
2022/03/27 00:46:31;;;;;;;21.27;10.18;;;12.00;60.80;;;;;;5113252;28;20071;-70
2022/03/27 00:49:35;;;;;;;15.63;9.35;;;12.00;61.20;;;;;;5113548;28;20047;-70
2022/03/27 00:52:39;;;;;;;14.13;8.95;;;12.00;61.20;;;;;;5113609;28;20049;-70
2022/03/27 00:55:46;;;;;;;22.90;9.05;;;12.00;59.60;;;;;;5113891;28;20043;-70
2022/03/27 00:58:50;;;;;;;15.50;9.13;;;12.00;60.80;;;;;;5113499;28;20046;-70
2022/03/27 01:01:55;;;;;;;14.48;8.90;;;12.00;60.40;;;;;;5113736;28;20181;-69
2022/03/27 01:04:59;;;;;;;13.85;9.23;;;12.10;58.60;;;;;;5113301;28;20058;-70
2022/03/27 01:08:09;;;;;;;17.55;9.82;;;12.20;59.00;;;;;;5112146;28;20062;-70
2022/03/27 01:11:18;;;;;;;17.13;9.50;;;12.10;60.10;;;;;;5112363;28;20038;-70
2022/03/27 01:14:31;;;;;;;16.42;9.68;;;12.00;61.20;;;;;;5113167;28;20046;-70
2022/03/27 01:17:34;;;;;;;;;;;11.90;61.10;;;;;;5112557;28;20039;-70
2022/03/27 01:20:41;;;;;;;16.73;10.07;;;11.70;62.20;;;;;;5113243;28;19914;-70
2022/03/27 01:23:45;;;;;;;15.60;9.73;;;11.60;62.80;;;;;;5112902;28;20043;-70
2022/03/27 01:26:49;;;;;;;16.48;9.35;;;11.40;63.70;;;;;;5111901;28;20496;-70
2022/03/27 01:29:55;;;;;;;15.27;9.73;;;11.30;64.60;;;;;;5111438;28;20481;-70
2022/03/27 01:32:59;;;;;;;16.98;9.85;;;11.20;64.20;;;;;;5113020;28;20038;-70
2022/03/27 01:36:03;;;;;;;18.08;9.45;;;11.10;65.60;;;;;;5111540;28;20050;-70
2022/03/27 01:39:10;;;;;;;19.77;10.38;;;11.00;64.90;;;;;;5112330;28;20035;-70
2022/03/27 01:42:14;;;;;;;16.88;9.75;;;11.00;65.80;;;;;;5112826;28;20047;-70
2022/03/27 01:45:19;;;;;;;14.88;9.60;;;10.90;65.50;;;;;;5111692;28;20034;-70
2022/03/27 01:48:23;;;;;;;15.93;9.88;;;10.90;64.00;;;;;;5111481;28;20528;-70
2022/03/27 01:51:28;;;;;;;19.85;9.52;;;11.00;65.00;;;;;;5112756;28;20481;-70
2022/03/27 01:54:32;;;;;;;17.58;10.88;;;11.00;64.60;;;;;;5112728;28;20046;-70
2022/03/27 01:57:36;;;;;;;19.23;11.55;;;10.50;65.70;;;;;;5111791;28;20058;-70
2022/03/27 02:00:42;;;;;;;14.85;9.55;;;10.30;66.10;;;;;;5112033;28;20047;-70
2022/03/27 02:03:48;;;;;;;19.70;9.45;;;10.40;67.20;;;;;;5112345;28;20050;-70
2022/03/27 02:06:51;;;;;;;16.40;9.77;;;10.40;66.80;;;;;;5111943;28;20051;-70
2022/03/27 02:09:55;;;;;;;15.90;10.68;;;10.40;67.30;;;;;;5112497;28;20486;-70
2022/03/27 02:12:59;;;;;;;16.20;9.70;;;10.30;67.30;;;;;;5112106;28;20050;-70
2022/03/27 02:16:03;;;;;;;15.05;9.85;;;10.30;67.60;;;;;;5111796;28;20630;-70
2022/03/27 02:19:11;;;;;;;22.58;11.90;;;10.30;68.40;;;;;;5112034;28;20410;-70
2022/03/27 02:22:14;;;;;;;19.25;11.43;;;10.20;68.50;;;;;;5111815;28;20070;-70
2022/03/27 02:25:19;;;;;;;19.80;10.35;;;10.30;67.30;;;;;;5112143;28;20047;-71
2022/03/27 02:28:23;;;;;;;17.10;11.20;;;10.30;67.90;;;;;;5110855;28;20066;-70
2022/03/27 02:31:28;;;;;;;18.67;11.77;;;10.20;68.00;;;;;;5111868;28;20047;-70
2022/03/27 02:34:31;;;;;;;19.13;10.93;;;10.20;68.00;;;;;;5112090;28;20050;-70
2022/03/27 02:37:35;;;;;;;25.30;11.52;;;10.20;67.30;;;;;;5111095;28;20050;-70
2022/03/27 02:40:42;;;;;;;22.17;11.73;;;10.30;67.90;;;;;;5111581;28;20042;-70
2022/03/27 02:43:46;;;;;;;18.40;11.82;;;10.30;67.00;;;;;;5111876;28;20386;-70
2022/03/27 02:46:50;;;;;;;22.52;11.63;;;10.30;66.10;;;;;;5110929;28;20066;-70
2022/03/27 02:49:55;;;;;;;17.27;11.15;;;10.30;66.10;;;;;;5111614;28;20054;-70
2022/03/27 02:52:59;;;;;;;21.10;11.05;;;10.40;65.30;;;;;;5111966;28;20055;-70
2022/03/27 02:56:04;;;;;;;27.75;11.43;;;10.40;65.80;;;;;;5110565;28;20686;-70
2022/03/27 02:59:08;;;;;;;16.45;11.27;;;10.50;65.40;;;;;;5111553;28;20046;-69
2022/03/27 03:02:12;;;;;;;16.77;11.18;;;10.50;65.30;;;;;;5111939;28;20366;-70
2022/03/27 03:05:17;;;;;;;21.48;11.93;;;10.50;66.10;;;;;;5111856;28;20058;-69
2022/03/27 03:08:21;;;;;;;20.50;13.07;;;10.30;66.50;;;;;;5110913;28;20051;-69
2022/03/27 03:11:25;;;;;;;16.27;11.52;;;10.10;67.10;;;;;;5111376;28;20051;-71
2022/03/27 03:14:29;;;;;;;19.35;11.77;;;10.00;68.30;;;;;;5111790;28;20051;-69
2022/03/27 03:17:33;;;;;;;18.27;11.23;;;9.90;68.40;;;;;;5111008;28;20038;-70
2022/03/27 03:20:39;;;;;;;21.55;12.18;;;9.80;68.70;;;;;;5111407;28;20050;-70
2022/03/27 03:23:43;;;;;;;21.25;11.50;;;9.80;68.80;;;;;;5111397;28;20051;-71
2022/03/27 03:26:49;;;;;;;19.92;11.80;;;9.70;69.00;;;;;;5110632;28;20054;-69
2022/03/27 03:29:54;;;;;;;20.13;12.27;;;9.70;69.40;;;;;;5110880;28;20114;-69
2022/03/27 03:32:58;;;;;;;22.85;12.20;;;9.60;70.10;;;;;;5111577;28;20046;-69
2022/03/27 03:36:03;;;;;;;19.98;11.57;;;9.50;70.00;;;;;;5114984;28;20500;-71
2022/03/27 03:39:07;;;;;;;19.73;11.85;;;9.60;70.00;;;;;;5115280;28;20480;-71
2022/03/27 03:42:12;;;;;;;21.90;12.70;;;9.60;69.20;;;;;;5114906;28;20046;-71
2022/03/27 03:45:16;;;;;;;20.75;11.35;;;9.70;69.50;;;;;;5114954;28;20059;-70
2022/03/27 03:48:20;;;;;;;19.85;12.05;;;9.70;70.10;;;;;;5114158;28;20050;-71
2022/03/27 03:51:24;;;;;;;22.45;13.05;;;9.70;69.20;;;;;;5114720;28;20394;-71
2022/03/27 03:54:29;;;;;;;20.80;12.38;;;9.80;69.60;;;;;;5114836;28;20059;-71
2022/03/27 03:57:32;;;;;;;19.45;12.13;;;9.90;69.10;;;;;;5113857;28;20066;-71
2022/03/27 04:00:36;;;;;;;21.48;13.23;;;9.90;70.00;;;;;;5114405;28;20393;-71
2022/03/27 04:03:40;;;;;;;21.15;12.57;;;9.80;69.70;;;;;;5114752;28;20357;-71
2022/03/27 04:06:45;;;;;;;27.23;13.50;;;9.90;69.40;;;;;;5113687;28;20055;-71
2022/03/27 04:09:49;;;;;;;28.02;13.65;;;9.90;70.00;;;;;;5113592;28;20050;-71
2022/03/27 04:12:53;;;;;;;21.98;12.63;;;9.70;70.70;;;;;;5113868;28;20055;-71
2022/03/27 04:15:57;;;;;;;25.60;14.05;;;9.60;72.10;;;;;;5114019;28;20046;-71
2022/03/27 04:19:01;;;;;;;26.15;13.98;;;9.50;72.30;;;;;;5113554;28;20405;-71
2022/03/27 04:22:05;;;;;;;25.63;13.80;;;9.60;72.50;;;;;;5113885;28;20122;-71
2022/03/27 04:25:10;;;;;;;24.20;14.27;;;9.50;73.10;;;;;;5114303;28;20051;-71
2022/03/27 04:28:14;;;;;;;23.00;14.07;;;9.30;74.10;;;;;;5113488;28;20066;-71
2022/03/27 04:31:18;;;;;;;27.40;14.93;;;9.30;74.30;;;;;;5113575;28;20058;-71
2022/03/27 04:34:23;;;;;;;25.20;14.60;;;9.30;73.80;;;;;;5114426;28;20047;-71
2022/03/27 04:37:27;;;;;;;24.73;13.77;;;9.40;74.50;;;;;;5113192;28;20042;-71
2022/03/27 04:40:31;;;;;;;21.63;13.60;;;9.30;73.10;;;;;;5113479;28;20042;-71
2022/03/27 04:43:35;;;;;;;24.63;11.98;;;9.40;72.00;;;;;;5114007;28;20054;-71
2022/03/27 04:46:39;;;;;;;22.67;11.02;;;9.50;70.80;;;;;;5112671;28;20062;-71
2022/03/27 04:49:42;;;;;;;20.75;11.82;;;9.70;68.00;;;;;;5113991;28;20378;-69
2022/03/27 04:52:47;;;;;;;18.38;11.25;;;9.70;68.80;;;;;;5113740;28;20046;-71
2022/03/27 04:55:51;;;;;;;19.75;11.65;;;9.70;69.50;;;;;;5113974;28;20038;-71
2022/03/27 04:58:56;;;;;;;22.83;11.68;;;9.60;69.50;;;;;;5113645;28;20485;-71
2022/03/27 05:02:01;;;;;;;18.40;11.20;;;9.50;70.30;;;;;;5113087;28;20062;-71
2022/03/27 05:05:06;;;;;;;19.13;10.90;;;9.40;70.30;;;;;;5113634;28;20484;-71
2022/03/27 05:08:10;;;;;;;24.85;13.02;;;9.40;69.90;;;;;;5112601;28;20047;-71
2022/03/27 05:11:14;;;;;;;19.42;11.02;;;9.20;70.40;;;;;;5112513;28;20473;-70
2022/03/27 05:14:18;;;;;;;16.85;9.95;;;9.20;70.40;;;;;;5113190;28;20039;-71
2022/03/27 05:17:22;;;;;;;17.05;10.15;;;9.20;70.80;;;;;;5112468;28;20042;-71
2022/03/27 05:20:28;;;;;;;17.45;10.10;;;9.20;70.90;;;;;;5113111;28;20050;-71
2022/03/27 05:23:31;;;;;;;22.85;10.20;;;9.30;70.00;;;;;;5112696;28;20046;-71
2022/03/27 05:26:36;;;;;;;18.40;11.45;;;9.30;69.80;;;;;;5112502;28;20047;-71
2022/03/27 05:29:40;;;;;;;15.52;10.15;;;9.40;69.50;;;;;;5112548;28;20477;-71
2022/03/27 05:32:45;;;;;;;19.88;10.38;;;9.50;70.00;;;;;;5112667;28;20080;-71
2022/03/27 05:35:49;;;;;;;20.67;10.18;;;9.30;70.20;;;;;;5112873;28;20058;-71
2022/03/27 05:38:53;;;;;;;18.00;10.00;;;9.40;69.90;;;;;;5112829;28;20054;-71
2022/03/27 05:41:57;;;;;;;18.00;10.15;;;9.50;70.50;;;;;;5111496;28;20489;-71
2022/03/27 05:45:03;;;;;;;14.02;8.52;;;9.60;69.20;;;;;;5112734;28;20049;-71
2022/03/27 05:48:08;;;;;;;20.65;10.02;;;9.90;68.30;;;;;;5111152;28;20050;-71
2022/03/27 05:51:12;;;;;;;17.88;10.25;;;10.40;68.50;;;;;;5112652;28;20050;-71
2022/03/27 05:54:16;;;;;;;17.85;9.48;;;10.50;67.70;;;;;;5112572;28;20051;-71
2022/03/27 05:57:23;;;;;;;18.63;9.65;;;10.90;65.70;;;;;;5111357;28;20046;-71
2022/03/27 06:00:27;;;;;;;14.50;9.13;;;10.70;65.90;;;;;;5112489;28;20039;-71
2022/03/27 06:03:32;;;;;;;15.55;9.73;;;11.90;67.20;;;;;;5112353;28;20469;-71
2022/03/27 06:06:35;;;;;;;21.30;11.00;;;12.80;65.00;;;;;;5111962;28;20047;-71
2022/03/27 06:09:39;;;;;;;24.17;14.50;;;13.50;63.90;;;;;;5112367;28;20047;-71
2022/03/27 06:12:44;;;;;;;25.67;12.07;;;14.10;62.30;;;;;;5110980;28;20054;-71
2022/03/27 06:15:48;;;;;;;25.90;13.18;;;14.20;62.50;;;;;;5112123;28;20046;-71
2022/03/27 06:18:52;;;;;;;22.00;12.35;;;13.90;61.60;;;;;;5111577;28;20051;-71
2022/03/27 06:21:58;;;;;;;20.65;11.48;;;14.60;64.30;;;;;;5111178;28;20051;-71
2022/03/27 06:25:02;;;;;;;18.73;11.43;;;15.20;61.90;;;;;;5111944;28;20039;-71
2022/03/27 06:28:06;;;;;;;23.05;11.07;;;15.80;61.70;;;;;;5110886;28;20058;-71
2022/03/27 06:31:11;;;;;;;24.33;11.98;;;16.70;61.00;;;;;;5111579;28;20074;-71
2022/03/27 06:34:15;;;;;;;23.92;12.82;;;17.60;57.70;;;;;;5111269;28;20046;-71
2022/03/27 06:37:19;;;;;;;18.95;11.05;;;18.20;56.90;;;;;;5111117;28;20047;-71
2022/03/27 06:40:23;;;;;;;25.10;11.70;;;17.40;58.00;;;;;;5109575;28;20672;-72
2022/03/27 06:43:27;;;;;;;19.33;11.85;;;17.40;59.20;;;;;;5111435;28;20058;-72
2022/03/27 06:46:33;;;;;;;18.52;12.63;;;17.10;59.10;;;;;;5111270;28;20055;-71
2022/03/27 06:49:38;;;;;;;30.30;12.82;;;16.90;58.20;;;;;;5111591;28;20046;-72
2022/03/27 06:52:43;;;;;;;19.02;11.82;;;16.20;59.70;;;;;;5111338;28;20054;-72
2022/03/27 06:55:47;;;;;;;18.83;12.43;;;15.50;61.50;;;;;;5111622;28;20050;-71
2022/03/27 06:58:51;;;;;;;16.48;11.70;;;16.00;61.30;;;;;;5111333;28;20038;-71
2022/03/27 07:05:20;;;;;;;;;;;16.80;60.20;;;;;;5112073;28;20089;-72
2022/03/27 07:08:24;;;;;;;17.73;11.05;;;16.20;60.00;;;;;;5111127;28;20255;-71
2022/03/27 07:11:28;;;;;;;16.48;10.73;;;16.70;60.40;;;;;;5115304;28;20374;-72
2022/03/27 07:14:32;;;;;;;18.35;11.48;;;15.50;57.70;;;;;;5115471;28;20509;-72
2022/03/27 07:17:44;;;;;;;16.95;11.02;;;16.10;59.40;;;;;;5115125;28;20071;-72
2022/03/27 07:20:48;;;;;;;20.13;11.68;;;15.70;62.00;;;;;;5115669;28;20039;-71
2022/03/27 07:23:52;;;;;;;18.38;11.40;;;15.10;65.00;;;;;;5115329;28;20039;-71
2022/03/27 07:26:56;;;;;;;20.40;11.35;;;15.80;64.20;;;;;;5115048;28;20046;-71
2022/03/27 07:30:00;;;;;;;20.90;13.15;;;16.40;63.40;;;;;;5115336;28;20051;-71
2022/03/27 07:33:05;;;;;;;26.40;13.50;;;16.90;60.70;;;;;;5115178;28;20055;-71
2022/03/27 07:36:10;;;;;;;20.13;13.07;;;17.60;59.00;;;;;;5115112;28;20101;-71
2022/03/27 07:39:14;;;;;;;24.02;12.38;;;17.60;59.30;;;;;;5115434;28;20378;-71
2022/03/27 07:42:18;;;;;;;18.80;12.18;;;19.20;57.40;;;;;;5115467;28;20055;-71
2022/03/27 07:45:24;;;;;;;19.27;11.77;;;20.20;53.10;;;;;;5115201;28;20519;-71
2022/03/27 07:48:28;;;;;;;16.73;11.52;;;20.50;54.10;;;;;;5114888;28;20078;-71
2022/03/27 07:51:32;;;;;;;18.35;11.77;;;21.50;52.70;;;;;;5115005;28;20386;-72
2022/03/27 07:54:35;;;;;;;15.93;11.65;;;21.00;52.20;;;;;;5114839;28;20054;-71
2022/03/27 07:57:40;;;;;;;17.35;12.10;;;19.30;55.40;;;;;;5114639;28;20046;-72
2022/03/27 08:00:44;;;;;;;20.70;12.30;;;18.90;55.00;;;;;;5114886;28;20042;-71
2022/03/27 08:03:48;;;;;;;20.58;13.27;;;18.80;57.20;;;;;;5114825;28;20050;-71
2022/03/27 08:06:53;;;;;;;19.05;11.30;;;19.40;56.10;;;;;;5114526;28;20042;-72
2022/03/27 08:09:57;;;;;;;16.75;12.15;;;18.30;57.20;;;;;;5114916;28;20062;-72
2022/03/27 08:13:01;;;;;;;23.17;14.32;;;18.10;57.00;;;;;;5114716;28;20386;-70
2022/03/27 08:16:05;;;;;;;21.10;13.40;;;17.80;56.30;;;;;;5114314;28;20047;-71
2022/03/27 08:19:09;;;;;;;20.40;11.75;;;17.20;59.10;;;;;;5114256;28;20047;-72
2022/03/27 08:22:14;;;;;;;17.20;12.27;;;18.20;57.90;;;;;;5114319;28;20390;-71
2022/03/27 08:28:40;;;;;;;14.95;10.93;;;19.80;55.40;;;;;;5114371;28;20046;-72
2022/03/27 08:31:44;;;;;;;16.95;11.20;;;18.90;54.70;;;;;;5114478;28;20401;-72
2022/03/27 08:34:48;;;;;;;25.60;13.88;;;18.70;55.60;;;;;;5113104;28;20057;-70
2022/03/27 08:37:52;;;;;;;15.85;10.70;;;18.90;56.30;;;;;;5113549;28;20070;-71
2022/03/27 08:41:00;;;;;;;16.48;11.20;;;18.60;55.40;;;;;;5113913;28;20480;-69
2022/03/27 08:44:05;;;;;;;16.77;11.65;;;20.00;54.90;;;;;;5112960;28;20047;-72
2022/03/27 08:47:26;;;;;;;14.25;10.45;;;20.70;52.70;;;;;;5113816;28;20051;-72
2022/03/27 08:50:42;;;;;;;16.55;10.60;;;22.00;52.70;;;;;;5114028;28;20054;-72
2022/03/27 08:54:08;;;;;;;14.93;9.82;;;23.00;50.10;;;;;;5113373;28;20477;-71
2022/03/27 08:57:24;;;;;;;22.58;10.52;;;22.00;51.30;;;;;;5113042;28;20497;-70
2022/03/27 09:00:31;;;;;;;15.52;10.27;;;22.20;51.50;;;;;;5113452;28;20050;-69
2022/03/27 09:03:35;;;;;;;18.27;10.98;;;22.10;52.40;;;;;;5113457;28;20047;-72
2022/03/27 09:06:39;;;;;;;14.82;11.25;;;21.50;53.30;;;;;;5112650;28;20046;-71
2022/03/27 09:09:43;;;;;;;16.63;10.35;;;20.20;54.80;;;;;;5113384;28;20055;-72
2022/03/27 09:12:47;;;;;;;13.50;9.70;;;21.40;50.90;;;;;;5113003;28;20046;-70
2022/03/27 09:16:03;;;;;;;13.55;10.05;;;21.70;50.40;;;;;;5113012;28;20046;-72
2022/03/27 09:19:07;;;;;;;19.05;10.55;;;22.40;49.80;;;;;;5113021;28;20109;-71
2022/03/27 09:22:22;;;;;;;17.75;10.38;;;21.70;50.50;;;;;;5113191;28;20062;-72
2022/03/27 09:25:26;;;;;;;17.73;9.63;;;22.10;51.90;;;;;;5109195;28;20042;-72
2022/03/27 09:28:38;;;;;;;16.65;8.80;;;23.70;49.50;;;;;;5100430;28;20047;-71
2022/03/27 09:31:43;;;;;;;14.82;8.18;;;24.80;48.20;;;;;;5107611;28;20063;-72
2022/03/27 09:35:17;;;;;;;15.02;9.30;;;25.40;46.30;;;;;;5107860;28;20051;-72
2022/03/27 09:38:22;;;;;;;12.80;7.78;;;25.10;45.60;;;;;;5095957;28;20050;-71
2022/03/27 09:41:36;;;;;;;14.38;7.80;;;23.80;46.50;;;;;;5106869;28;20043;-71
2022/03/27 09:44:42;;;;;;;11.63;7.50;;;23.30;46.40;;;;;;5107061;28;20043;-71
2022/03/27 09:47:48;;;;;;;10.80;7.63;;;22.50;43.90;;;;;;5100884;28;20043;-71
2022/03/27 09:50:59;;;;;;;12.77;6.75;;;23.40;45.60;;;;;;5110948;28;20043;-71
2022/03/27 09:54:03;;;;;;;15.88;7.43;;;23.70;43.40;;;;;;5105560;28;20051;-74
2022/03/27 09:57:31;;;;;;;8.82;6.70;;;22.30;43.90;;;;;;5099961;28;20051;-73
2022/03/27 10:00:35;;;;;;;8.02;5.95;;;21.90;44.80;;;;;;5096528;28;20039;-72
2022/03/27 10:04:13;;;;;;;15.20;6.75;;;21.40;42.30;;;;;;5108380;28;20043;-73
2022/03/27 10:07:19;;;;;;;12.00;7.43;;;21.80;44.30;;;;;;5103280;28;20054;-73
2022/03/27 10:10:26;;;;;;;9.32;6.85;;;22.10;44.20;;;;;;5100972;28;20413;-72
2022/03/27 10:13:30;;;;;;;11.02;6.40;;;23.40;43.20;;;;;;5105577;28;20046;-70
2022/03/27 10:16:41;;;;;;;13.02;6.53;;;23.70;42.00;;;;;;5096642;28;20043;-72
2022/03/27 10:19:50;;;;;;;9.50;6.93;;;24.90;42.30;;;;;;5108809;28;20042;-72
2022/03/27 10:23:07;;;;;;;16.60;7.45;;;24.10;41.40;;;;;;5105709;28;20395;-70
2022/03/27 10:26:11;;;;;;;15.07;7.25;;;24.90;42.30;;;;;;5101688;28;20031;-70
2022/03/27 10:29:16;;;;;;;10.90;7.03;;;25.10;41.70;;;;;;5108279;28;20047;-69
2022/03/27 10:32:20;;;;;;;10.38;6.55;;;24.30;42.50;;;;;;5096187;28;20058;-70
2022/03/27 10:35:55;;;;;;;10.13;6.20;;;24.90;42.90;;;;;;5103159;28;20661;-70
2022/03/27 10:39:19;;;;;;;10.40;6.50;;;25.40;42.50;;;;;;5105424;28;20062;-72
2022/03/27 10:43:00;;;;;;;9.95;6.75;;;24.70;41.70;;;;;;5099771;28;20386;-72
2022/03/27 10:46:23;;;;;;;11.05;6.40;;;23.90;42.50;;;;;;5107626;28;20043;-70
2022/03/27 10:49:28;;;;;;;8.50;6.72;;;24.20;42.10;;;;;;5105400;28;20039;-72
2022/03/27 10:52:36;;;;;;;11.32;7.75;;;23.70;41.80;;;;;;5109620;28;20038;-71
2022/03/27 10:55:46;;;;;;;23.75;11.80;;;24.50;42.30;;;;;;5106982;28;20046;-70
2022/03/27 10:59:07;;;;;;;12.38;7.22;;;25.50;43.40;;;;;;5103599;28;20050;-73
2022/03/27 11:02:47;;;;;;;8.80;6.50;;;25.30;40.40;;;;;;5104054;28;20498;-72
2022/03/27 11:05:51;;;;;;;9.15;6.53;;;25.50;41.80;;;;;;5099159;28;20039;-72
2022/03/27 11:09:00;;;;;;;9.63;6.82;;;26.20;41.10;;;;;;5106530;28;20043;-72
2022/03/27 11:12:29;;;;;;;9.93;6.95;;;26.10;40.80;;;;;;5093179;28;20042;-73
2022/03/27 11:16:11;;;;;;;10.32;6.78;;;26.50;41.30;;;;;;5111482;28;20051;-72
2022/03/27 11:19:43;;;;;;;11.73;8.30;;;26.30;40.50;;;;;;5111730;28;20509;-72
2022/03/27 11:22:54;;;;;;;13.38;7.18;;;25.60;40.40;;;;;;5111505;28;20034;-72
2022/03/27 11:26:00;;;;;;;14.88;7.97;;;24.90;40.60;;;;;;5111190;28;20038;-72
2022/03/27 11:29:10;;;;;;;14.93;7.30;;;25.30;40.60;;;;;;5111525;28;20047;-72
2022/03/27 11:32:15;;;;;;;12.23;8.05;;;25.70;40.70;;;;;;5111391;28;20047;-70
2022/03/27 11:35:20;;;;;;;8.82;7.25;;;24.60;40.80;;;;;;5111372;28;20575;-70
2022/03/27 11:38:26;;;;;;;14.70;8.15;;;24.00;41.40;;;;;;5110834;28;20039;-73
2022/03/27 11:41:42;;;;;;;11.70;8.00;;;23.70;43.40;;;;;;5111371;28;20046;-73
2022/03/27 11:48:16;;;;;;;11.82;7.88;;;24.50;40.20;;;;;;5110072;28;20038;-72
2022/03/27 11:51:21;;;;;;;10.30;6.93;;;25.80;40.80;;;;;;5110882;28;20043;-70
2022/03/27 11:54:24;;;;;;;10.25;7.07;;;26.60;40.20;;;;;;5111964;28;20039;-71
2022/03/27 11:57:44;;;;;;;10.50;7.25;;;27.50;39.70;;;;;;5113464;28;20055;-70
2022/03/27 12:00:48;;;;;;;8.95;6.82;;;28.20;40.70;;;;;;5114723;28;20057;-70
2022/03/27 12:03:57;;;;;;;9.20;7.10;;;28.40;39.40;;;;;;5114509;28;20067;-71
2022/03/27 12:07:02;;;;;;;9.57;6.75;;;28.40;39.40;;;;;;5113666;28;20050;-72
2022/03/27 12:10:06;;;;;;;11.75;7.22;;;28.50;37.90;;;;;;5114625;28;20096;-72
2022/03/27 12:13:11;;;;;;;9.20;6.28;;;28.70;38.60;;;;;;5113612;28;20051;-73
2022/03/27 12:16:17;;;;;;;13.20;7.80;;;28.90;39.10;;;;;;5113813;28;20042;-70
2022/03/27 12:19:22;;;;;;;10.20;7.30;;;28.90;36.60;;;;;;5114184;28;20489;-72
2022/03/27 12:22:43;;;;;;;10.05;7.10;;;28.50;36.60;;;;;;5114409;28;20035;-73
2022/03/27 12:26:04;;;;;;;10.27;6.78;;;28.80;36.70;;;;;;5114716;28;20046;-72
2022/03/27 12:32:36;;;;;;;10.52;7.05;;;29.70;35.30;;;;;;5114514;28;20520;-73
2022/03/27 12:35:40;;;;;;;16.05;6.82;;;27.60;36.30;;;;;;5114702;28;20375;-72
2022/03/27 12:38:45;;;;;;;11.23;7.13;;;27.00;37.80;;;;;;5114485;28;20050;-72
2022/03/27 12:41:49;;;;;;;13.73;7.95;;;26.50;36.40;;;;;;5113239;28;20047;-72
2022/03/27 12:44:54;;;;;;;15.55;8.20;;;26.50;37.60;;;;;;5114053;28;20043;-72
2022/03/27 12:48:02;;;;;;;12.45;7.82;;;26.80;37.70;;;;;;5113638;28;20046;-72
2022/03/27 12:51:12;;;;;;;11.68;7.50;;;26.60;36.60;;;;;;5114312;28;20050;-72
2022/03/27 12:54:16;;;;;;;14.63;9.20;;;25.70;34.70;;;;;;5113831;28;20378;-72
2022/03/27 12:57:20;;;;;;;13.93;8.85;;;25.50;38.10;;;;;;5113446;28;20051;-72
2022/03/27 13:00:32;;;;;;;17.10;9.40;;;26.10;37.70;;;;;;5113756;28;20046;-72
2022/03/27 13:03:38;;;;;;;19.15;9.07;;;26.80;38.40;;;;;;5114053;28;20051;-73
2022/03/27 13:06:50;;;;;;;17.85;9.73;;;26.30;38.10;;;;;;5111183;28;20485;-73
2022/03/27 13:09:54;;;;;;;18.00;10.48;;;25.10;38.10;;;;;;5113551;28;20059;-72
2022/03/27 13:13:00;;;;;;;35.20;10.32;;;25.00;39.40;;;;;;5113627;28;20572;-72
2022/03/27 13:16:27;;;;;;;18.55;10.60;;;24.10;39.40;;;;;;5113443;28;20059;-71
2022/03/27 13:19:45;;;;;;;13.82;9.60;;;24.00;38.50;;;;;;5113685;28;20043;-72
2022/03/27 13:22:49;;;;;;;18.60;10.20;;;23.60;37.60;;;;;;5113373;28;20054;-72
2022/03/27 13:25:54;;;;;;;20.85;10.30;;;23.70;38.50;;;;;;5112173;28;20037;-72
2022/03/27 13:28:58;;;;;;;19.42;11.32;;;24.30;38.60;;;;;;5112766;28;20043;-72
2022/03/27 13:32:05;;;;;;;18.40;10.25;;;24.80;36.90;;;;;;5113067;28;20061;-73
2022/03/27 13:35:08;;;;;;;15.55;10.90;;;24.80;38.00;;;;;;5112893;28;20043;-73
2022/03/27 13:38:12;;;;;;;13.75;10.45;;;25.20;38.70;;;;;;5112483;28;20043;-72
2022/03/27 13:44:41;;;;;;;16.02;11.00;;;24.80;38.70;;;;;;5112834;28;20043;-73
2022/03/27 13:47:45;;;;;;;15.70;10.60;;;25.20;38.40;;;;;;5112592;28;20034;-73
2022/03/27 13:50:49;;;;;;;23.08;10.55;;;24.80;38.00;;;;;;5113208;28;20677;-72
2022/03/27 13:53:53;;;;;;;16.63;10.43;;;24.70;37.50;;;;;;5111835;28;20035;-73
2022/03/27 13:56:57;;;;;;;17.05;9.95;;;24.20;36.50;;;;;;5112366;28;20043;-73
2022/03/27 14:00:02;;;;;;;15.90;10.25;;;24.60;37.70;;;;;;5112642;28;20046;-73
2022/03/27 14:03:15;;;;;;;17.05;9.73;;;25.00;38.00;;;;;;5112570;28;20114;-73
2022/03/27 14:06:19;;;;;;;16.20;10.15;;;25.50;37.40;;;;;;5112413;28;20501;-73
2022/03/27 14:09:23;;;;;;;14.55;10.20;;;25.90;37.20;;;;;;5112066;28;20046;-73
2022/03/27 14:12:28;;;;;;;18.58;10.10;;;26.20;37.10;;;;;;5112213;28;20051;-70
2022/03/27 14:15:34;;;;;;;17.00;10.02;;;26.50;37.80;;;;;;5112222;28;20492;-72
2022/03/27 14:18:39;;;;;;;14.45;9.75;;;26.90;37.00;;;;;;5111845;28;20495;-73
2022/03/27 14:21:43;;;;;;;13.25;9.70;;;26.60;36.80;;;;;;5112559;28;20046;-73
2022/03/27 14:24:49;;;;;;;16.63;10.23;;;25.90;36.80;;;;;;5112394;28;20042;-71
2022/03/27 14:27:53;;;;;;;13.38;9.88;;;26.50;37.50;;;;;;5111294;28;20102;-73
2022/03/27 14:30:58;;;;;;;16.92;10.10;;;26.20;38.50;;;;;;5111956;28;20493;-71
2022/03/27 14:34:01;;;;;;;19.20;9.88;;;26.40;37.80;;;;;;5112330;28;20046;-73
2022/03/27 14:37:06;;;;;;;16.33;10.15;;;26.30;35.90;;;;;;5111689;28;20051;-71
2022/03/27 14:40:13;;;;;;;18.58;11.25;;;25.60;37.00;;;;;;5111611;28;20046;-71
2022/03/27 14:43:17;;;;;;;16.75;11.75;;;24.70;37.00;;;;;;5111034;28;20047;-71
2022/03/27 14:46:21;;;;;;;19.58;11.40;;;24.10;37.30;;;;;;5111599;28;20046;-72
2022/03/27 14:49:25;;;;;;;19.20;11.88;;;24.60;37.90;;;;;;5112150;28;20055;-73
2022/03/27 14:52:29;;;;;;;18.63;10.38;;;24.50;37.40;;;;;;5111920;28;20047;-72
2022/03/27 14:58:55;;;;;;;24.50;11.00;;;24.70;38.50;;;;;;5111050;28;20051;-73
2022/03/27 15:01:59;;;;;;;15.75;10.10;;;24.60;38.70;;;;;;5111913;28;20047;-72
2022/03/27 15:05:05;;;;;;;18.75;10.07;;;24.00;39.00;;;;;;5111640;28;20042;-72
2022/03/27 15:08:09;;;;;;;16.33;11.07;;;23.40;38.30;;;;;;5111153;28;20382;-72
2022/03/27 15:11:15;;;;;;;15.32;9.73;;;23.00;38.30;;;;;;5111253;28;20058;-72
2022/03/27 15:14:19;;;;;;;15.18;10.60;;;23.20;38.00;;;;;;5110465;28;20110;-72
2022/03/27 15:17:24;;;;;;;15.93;10.45;;;23.60;39.20;;;;;;5110888;28;20383;-72
2022/03/27 15:20:28;;;;;;;18.00;10.35;;;23.80;39.20;;;;;;5111585;28;20481;-72
2022/03/27 15:23:34;;;;;;;16.02;10.57;;;23.80;39.60;;;;;;5111777;28;20054;-72
2022/03/27 15:26:39;;;;;;;18.52;11.15;;;23.20;38.70;;;;;;5111102;28;20046;-72
2022/03/27 15:29:43;;;;;;;19.50;10.82;;;22.40;38.50;;;;;;5111922;28;20043;-72
2022/03/27 15:32:47;;;;;;;24.38;12.45;;;22.10;40.70;;;;;;5115787;28;20050;-71
2022/03/27 15:35:51;;;;;;;18.00;11.35;;;21.90;40.10;;;;;;5115234;28;20049;-72
2022/03/27 15:38:55;;;;;;;21.50;11.25;;;21.70;39.60;;;;;;5114947;28;20050;-73
2022/03/27 15:42:00;;;;;;;16.80;10.70;;;21.70;40.10;;;;;;5114275;28;20050;-72
2022/03/27 15:45:05;;;;;;;16.58;11.43;;;21.60;39.50;;;;;;5115284;28;20051;-72
2022/03/27 15:48:10;;;;;;;21.83;12.52;;;21.50;40.80;;;;;;5114169;28;20050;-72
2022/03/27 15:51:14;;;;;;;18.90;11.90;;;21.10;40.20;;;;;;5113563;28;20054;-72
2022/03/27 15:54:18;;;;;;;18.65;12.15;;;20.90;40.70;;;;;;5114782;28;20039;-73
2022/03/27 15:57:23;;;;;;;28.85;12.25;;;20.80;40.80;;;;;;5114052;28;20054;-73
2022/03/27 16:00:27;;;;;;;23.15;12.35;;;21.00;41.50;;;;;;5114706;28;20535;-72
2022/03/27 16:03:31;;;;;;;23.55;12.32;;;20.90;40.80;;;;;;5114576;28;20042;-72
2022/03/27 16:06:37;;;;;;;17.70;11.25;;;20.90;41.00;;;;;;5114047;28;20668;-72
2022/03/27 16:09:41;;;;;;;17.52;11.52;;;20.90;41.90;;;;;;5114279;28;20043;-72
2022/03/27 16:12:45;;;;;;;21.02;12.65;;;20.80;42.60;;;;;;5114334;28;20512;-72